sensor_id;sensor_type;location;lat;lon;timestamp;P1;durP1;ratioP1;P2;durP2;ratioP2
46881;SDS011;44112;38.408;-122.974;2022-11-15T00:00:34;11.60;;;3.70;;
46881;SDS011;44112;38.408;-122.974;2022-11-15T00:03:01;10.20;;;3.70;;
46881;SDS011;44112;38.408;-122.974;2022-11-15T00:05:28;17.15;;;4.18;;
46881;SDS011;44112;38.408;-122.974;2022-11-15T00:07:56;9.73;;;3.72;;
46881;SDS011;44112;38.408;-122.974;2022-11-15T00:10:22;6.95;;;3.30;;
46881;SDS011;44112;38.408;-122.974;2022-11-15T00:12:49;9.73;;;3.10;;
46881;SDS011;44112;38.408;-122.974;2022-11-15T00:15:17;9.55;;;3.50;;
46881;SDS011;44112;38.408;-122.974;2022-11-15T00:17:44;11.32;;;3.78;;
46881;SDS011;44112;38.408;-122.974;2022-11-15T00:20:15;6.95;;;2.97;;
46881;SDS011;44112;38.408;-122.974;2022-11-15T00:22:42;8.00;;;3.65;;
46881;SDS011;44112;38.408;-122.974;2022-11-15T00:25:09;7.43;;;3.47;;
46881;SDS011;44112;38.408;-122.974;2022-11-15T00:27:36;7.88;;;3.20;;
46881;SDS011;44112;38.408;-122.974;2022-11-15T00:30:03;6.45;;;3.55;;
46881;SDS011;44112;38.408;-122.974;2022-11-15T00:32:32;9.38;;;3.35;;
46881;SDS011;44112;38.408;-122.974;2022-11-15T00:35:00;8.32;;;3.50;;
46881;SDS011;44112;38.408;-122.974;2022-11-15T00:37:26;8.13;;;3.15;;
46881;SDS011;44112;38.408;-122.974;2022-11-15T00:39:54;7.30;;;3.28;;
46881;SDS011;44112;38.408;-122.974;2022-11-15T00:42:20;9.02;;;3.20;;
46881;SDS011;44112;38.408;-122.974;2022-11-15T00:44:47;8.60;;;3.58;;
46881;SDS011;44112;38.408;-122.974;2022-11-15T00:47:14;8.27;;;3.20;;
46881;SDS011;44112;38.408;-122.974;2022-11-15T00:49:40;7.15;;;3.40;;
46881;SDS011;44112;38.408;-122.974;2022-11-15T00:52:07;5.55;;;2.90;;
46881;SDS011;44112;38.408;-122.974;2022-11-15T00:54:34;6.00;;;2.97;;
46881;SDS011;44112;38.408;-122.974;2022-11-15T00:57:01;6.18;;;3.00;;
46881;SDS011;44112;38.408;-122.974;2022-11-15T00:59:27;5.85;;;2.88;;
46881;SDS011;44112;38.408;-122.974;2022-11-15T01:01:55;6.60;;;3.22;;
46881;SDS011;44112;38.408;-122.974;2022-11-15T01:04:22;5.72;;;3.05;;
46881;SDS011;44112;38.408;-122.974;2022-11-15T01:06:49;5.72;;;3.00;;
46881;SDS011;44112;38.408;-122.974;2022-11-15T01:09:16;6.43;;;3.20;;
46881;SDS011;44112;38.408;-122.974;2022-11-15T01:11:43;6.03;;;3.00;;
46881;SDS011;44112;38.408;-122.974;2022-11-15T01:14:09;10.27;;;3.45;;
46881;SDS011;44112;38.408;-122.974;2022-11-15T01:16:36;9.80;;;3.30;;
46881;SDS011;44112;38.408;-122.974;2022-11-15T01:19:03;10.23;;;3.60;;
46881;SDS011;44112;38.408;-122.974;2022-11-15T01:21:29;9.20;;;3.30;;
46881;SDS011;44112;38.408;-122.974;2022-11-15T01:23:56;10.35;;;3.15;;
46881;SDS011;44112;38.408;-122.974;2022-11-15T01:26:23;9.77;;;3.45;;
46881;SDS011;44112;38.408;-122.974;2022-11-15T01:28:50;9.13;;;3.08;;
46881;SDS011;44112;38.408;-122.974;2022-11-15T01:31:18;5.97;;;2.88;;
46881;SDS011;44112;38.408;-122.974;2022-11-15T01:33:46;6.55;;;3.03;;
46881;SDS011;44112;38.408;-122.974;2022-11-15T01:36:15;7.43;;;2.70;;
46881;SDS011;44112;38.408;-122.974;2022-11-15T01:38:43;7.28;;;3.15;;
46881;SDS011;44112;38.408;-122.974;2022-11-15T01:41:17;6.47;;;2.85;;
46881;SDS011;44112;38.408;-122.974;2022-11-15T01:43:49;10.50;;;3.20;;
46881;SDS011;44112;38.408;-122.974;2022-11-15T01:48:51;5.90;;;2.70;;
46881;SDS011;44112;38.408;-122.974;2022-11-15T01:51:20;5.85;;;2.67;;
46881;SDS011;44112;38.408;-122.974;2022-11-15T01:53:50;9.60;;;2.75;;
46881;SDS011;44112;38.408;-122.974;2022-11-15T01:56:23;7.22;;;3.10;;
46881;SDS011;44112;38.408;-122.974;2022-11-15T01:58:55;7.15;;;2.88;;
46881;SDS011;44112;38.408;-122.974;2022-11-15T02:01:25;7.82;;;2.80;;
46881;SDS011;44112;38.408;-122.974;2022-11-15T02:03:58;7.93;;;2.95;;
46881;SDS011;44112;38.408;-122.974;2022-11-15T02:06:28;7.05;;;2.80;;
46881;SDS011;44112;38.408;-122.974;2022-11-15T02:08:55;7.30;;;2.92;;
46881;SDS011;44112;38.408;-122.974;2022-11-15T02:11:23;7.97;;;3.25;;
46881;SDS011;44112;38.408;-122.974;2022-11-15T02:13:50;7.40;;;3.00;;
46881;SDS011;44112;38.408;-122.974;2022-11-15T02:33:35;7.88;;;2.88;;
46881;SDS011;44112;38.408;-122.974;2022-11-15T02:36:05;8.68;;;2.80;;
46881;SDS011;44112;38.408;-122.974;2022-11-15T02:39:03;9.68;;;2.90;;
46881;SDS011;44112;38.408;-122.974;2022-11-15T02:44:31;13.57;;;2.95;;
46881;SDS011;44112;38.408;-122.974;2022-11-15T02:47:05;5.40;;;2.58;;
46881;SDS011;44112;38.408;-122.974;2022-11-15T02:49:38;6.65;;;2.70;;
46881;SDS011;44112;38.408;-122.974;2022-11-15T02:52:15;7.30;;;2.70;;
46881;SDS011;44112;38.408;-122.974;2022-11-15T02:54:42;8.88;;;3.08;;
46881;SDS011;44112;38.408;-122.974;2022-11-15T02:57:19;6.22;;;2.70;;
46881;SDS011;44112;38.408;-122.974;2022-11-15T03:00:08;5.30;;;2.70;;
46881;SDS011;44112;38.408;-122.974;2022-11-15T03:02:57;6.95;;;2.83;;
46881;SDS011;44112;38.408;-122.974;2022-11-15T03:06:08;5.43;;;2.65;;
46881;SDS011;44112;38.408;-122.974;2022-11-15T03:09:30;6.78;;;2.60;;
46881;SDS011;44112;38.408;-122.974;2022-11-15T03:12:03;5.28;;;2.60;;
46881;SDS011;44112;38.408;-122.974;2022-11-15T03:14:47;5.43;;;2.70;;
46881;SDS011;44112;38.408;-122.974;2022-11-15T03:17:28;5.95;;;2.60;;
46881;SDS011;44112;38.408;-122.974;2022-11-15T03:19:59;5.18;;;2.60;;
46881;SDS011;44112;38.408;-122.974;2022-11-15T03:22:33;5.68;;;2.70;;
46881;SDS011;44112;38.408;-122.974;2022-11-15T03:25:07;5.30;;;2.60;;
46881;SDS011;44112;38.408;-122.974;2022-11-15T03:27:41;5.53;;;2.63;;
46881;SDS011;44112;38.408;-122.974;2022-11-15T03:30:12;5.80;;;2.80;;
46881;SDS011;44112;38.408;-122.974;2022-11-15T03:33:12;7.25;;;2.67;;
46881;SDS011;44112;38.408;-122.974;2022-11-15T03:35:34;5.28;;;2.75;;
46881;SDS011;44112;38.408;-122.974;2022-11-15T03:38:24;5.22;;;2.78;;
46881;SDS011;44112;38.408;-122.974;2022-11-15T03:44:26;6.03;;;2.90;;
46881;SDS011;44112;38.408;-122.974;2022-11-15T03:49:34;6.75;;;2.65;;
46881;SDS011;44112;38.408;-122.974;2022-11-15T03:52:04;5.38;;;2.78;;
46881;SDS011;44112;38.408;-122.974;2022-11-15T03:54:31;5.15;;;2.50;;
46881;SDS011;44112;38.408;-122.974;2022-11-15T03:56:58;6.38;;;2.63;;
46881;SDS011;44112;38.408;-122.974;2022-11-15T03:59:24;6.10;;;2.60;;
46881;SDS011;44112;38.408;-122.974;2022-11-15T04:01:54;4.65;;;2.50;;
46881;SDS011;44112;38.408;-122.974;2022-11-15T04:04:20;6.78;;;2.80;;
46881;SDS011;44112;38.408;-122.974;2022-11-15T04:06:47;6.30;;;2.75;;
46881;SDS011;44112;38.408;-122.974;2022-11-15T04:09:13;8.18;;;2.80;;
46881;SDS011;44112;38.408;-122.974;2022-11-15T04:11:40;6.80;;;2.90;;
46881;SDS011;44112;38.408;-122.974;2022-11-15T04:14:06;6.68;;;3.08;;
46881;SDS011;44112;38.408;-122.974;2022-11-15T04:16:33;7.47;;;2.80;;
46881;SDS011;44112;38.408;-122.974;2022-11-15T04:18:59;6.30;;;2.75;;
46881;SDS011;44112;38.408;-122.974;2022-11-15T04:21:45;9.95;;;3.03;;
46881;SDS011;44112;38.408;-122.974;2022-11-15T04:24:30;5.28;;;2.63;;
46881;SDS011;44112;38.408;-122.974;2022-11-15T04:26:58;4.90;;;2.42;;
46881;SDS011;44112;38.408;-122.974;2022-11-15T04:29:24;5.28;;;2.72;;
46881;SDS011;44112;38.408;-122.974;2022-11-15T04:32:03;7.28;;;2.95;;
46881;SDS011;44112;38.408;-122.974;2022-11-15T04:34:31;5.97;;;2.88;;
46881;SDS011;44112;38.408;-122.974;2022-11-15T04:36:58;5.18;;;2.70;;
46881;SDS011;44112;38.408;-122.974;2022-11-15T04:39:42;6.82;;;3.15;;
46881;SDS011;44112;38.408;-122.974;2022-11-15T04:42:09;5.68;;;2.88;;
46881;SDS011;44112;38.408;-122.974;2022-11-15T04:44:35;8.82;;;3.00;;
46881;SDS011;44112;38.408;-122.974;2022-11-15T04:47:02;5.10;;;2.60;;
46881;SDS011;44112;38.408;-122.974;2022-11-15T04:49:28;7.38;;;3.10;;
46881;SDS011;44112;38.408;-122.974;2022-11-15T04:51:55;6.15;;;2.83;;
46881;SDS011;44112;38.408;-122.974;2022-11-15T04:54:21;7.43;;;3.08;;
46881;SDS011;44112;38.408;-122.974;2022-11-15T04:56:48;5.43;;;2.70;;
46881;SDS011;44112;38.408;-122.974;2022-11-15T04:59:14;6.03;;;2.72;;
46881;SDS011;44112;38.408;-122.974;2022-11-15T05:01:40;6.50;;;2.78;;
46881;SDS011;44112;38.408;-122.974;2022-11-15T05:04:07;5.97;;;2.67;;
46881;SDS011;44112;38.408;-122.974;2022-11-15T05:06:51;6.00;;;2.90;;
46881;SDS011;44112;38.408;-122.974;2022-11-15T05:09:18;5.82;;;2.70;;
46881;SDS011;44112;38.408;-122.974;2022-11-15T05:11:46;5.35;;;2.70;;
46881;SDS011;44112;38.408;-122.974;2022-11-15T05:14:13;5.13;;;2.60;;
46881;SDS011;44112;38.408;-122.974;2022-11-15T05:16:40;5.95;;;2.80;;
46881;SDS011;44112;38.408;-122.974;2022-11-15T05:19:06;5.95;;;2.88;;
46881;SDS011;44112;38.408;-122.974;2022-11-15T05:21:33;6.18;;;2.63;;
46881;SDS011;44112;38.408;-122.974;2022-11-15T05:24:00;11.15;;;3.30;;
46881;SDS011;44112;38.408;-122.974;2022-11-15T05:26:27;6.50;;;2.75;;
46881;SDS011;44112;38.408;-122.974;2022-11-15T05:28:57;6.32;;;2.60;;
46881;SDS011;44112;38.408;-122.974;2022-11-15T05:31:25;7.95;;;2.90;;
46881;SDS011;44112;38.408;-122.974;2022-11-15T05:33:52;11.32;;;3.00;;
46881;SDS011;44112;38.408;-122.974;2022-11-15T05:36:36;7.05;;;2.75;;
46881;SDS011;44112;38.408;-122.974;2022-11-15T05:39:05;16.73;;;3.40;;
46881;SDS011;44112;38.408;-122.974;2022-11-15T05:41:33;18.45;;;5.10;;
46881;SDS011;44112;38.408;-122.974;2022-11-15T05:44:21;15.32;;;5.05;;
46881;SDS011;44112;38.408;-122.974;2022-11-15T05:46:49;13.75;;;5.03;;
46881;SDS011;44112;38.408;-122.974;2022-11-15T05:49:21;16.85;;;4.60;;
46881;SDS011;44112;38.408;-122.974;2022-11-15T05:51:53;14.00;;;4.82;;
46881;SDS011;44112;38.408;-122.974;2022-11-15T05:54:20;11.73;;;4.93;;
46881;SDS011;44112;38.408;-122.974;2022-11-15T05:56:48;15.32;;;4.70;;
46881;SDS011;44112;38.408;-122.974;2022-11-15T05:59:15;16.88;;;5.85;;
46881;SDS011;44112;38.408;-122.974;2022-11-15T06:01:42;11.13;;;4.40;;
46881;SDS011;44112;38.408;-122.974;2022-11-15T06:04:08;14.68;;;5.03;;
46881;SDS011;44112;38.408;-122.974;2022-11-15T06:06:35;11.02;;;4.22;;
46881;SDS011;44112;38.408;-122.974;2022-11-15T06:09:01;10.52;;;4.63;;
46881;SDS011;44112;38.408;-122.974;2022-11-15T06:11:28;12.90;;;5.15;;
46881;SDS011;44112;38.408;-122.974;2022-11-15T06:13:54;13.07;;;4.25;;
46881;SDS011;44112;38.408;-122.974;2022-11-15T06:16:22;13.02;;;4.07;;
46881;SDS011;44112;38.408;-122.974;2022-11-15T06:18:48;10.70;;;3.90;;
46881;SDS011;44112;38.408;-122.974;2022-11-15T06:21:15;9.27;;;4.13;;
46881;SDS011;44112;38.408;-122.974;2022-11-15T06:23:42;14.18;;;4.28;;
46881;SDS011;44112;38.408;-122.974;2022-11-15T06:26:09;8.13;;;3.90;;
46881;SDS011;44112;38.408;-122.974;2022-11-15T06:28:36;10.48;;;3.72;;
46881;SDS011;44112;38.408;-122.974;2022-11-15T06:31:05;11.55;;;3.85;;
46881;SDS011;44112;38.408;-122.974;2022-11-15T06:33:34;8.60;;;3.50;;
46881;SDS011;44112;38.408;-122.974;2022-11-15T06:36:04;7.85;;;3.67;;
46881;SDS011;44112;38.408;-122.974;2022-11-15T06:38:33;7.70;;;3.60;;
46881;SDS011;44112;38.408;-122.974;2022-11-15T06:41:04;9.07;;;3.90;;
46881;SDS011;44112;38.408;-122.974;2022-11-15T06:43:32;6.78;;;3.45;;
46881;SDS011;44112;38.408;-122.974;2022-11-15T06:46:00;9.38;;;3.92;;
46881;SDS011;44112;38.408;-122.974;2022-11-15T06:48:27;6.78;;;3.25;;
46881;SDS011;44112;38.408;-122.974;2022-11-15T06:50:56;7.72;;;3.53;;
46881;SDS011;44112;38.408;-122.974;2022-11-15T06:53:25;8.40;;;3.53;;
46881;SDS011;44112;38.408;-122.974;2022-11-15T06:55:52;6.72;;;3.25;;
46881;SDS011;44112;38.408;-122.974;2022-11-15T06:58:20;7.72;;;3.92;;
46881;SDS011;44112;38.408;-122.974;2022-11-15T07:00:47;7.80;;;3.53;;
46881;SDS011;44112;38.408;-122.974;2022-11-15T07:03:13;7.07;;;3.50;;
46881;SDS011;44112;38.408;-122.974;2022-11-15T07:05:41;7.03;;;3.30;;
46881;SDS011;44112;38.408;-122.974;2022-11-15T07:08:07;6.65;;;3.50;;
46881;SDS011;44112;38.408;-122.974;2022-11-15T07:10:34;7.40;;;3.30;;
46881;SDS011;44112;38.408;-122.974;2022-11-15T07:13:01;7.93;;;3.35;;
46881;SDS011;44112;38.408;-122.974;2022-11-15T07:15:27;7.50;;;3.30;;
46881;SDS011;44112;38.408;-122.974;2022-11-15T07:17:54;6.75;;;3.53;;
46881;SDS011;44112;38.408;-122.974;2022-11-15T07:20:20;8.40;;;3.30;;
46881;SDS011;44112;38.408;-122.974;2022-11-15T07:22:46;6.68;;;3.28;;
46881;SDS011;44112;38.408;-122.974;2022-11-15T07:25:13;7.00;;;3.60;;
46881;SDS011;44112;38.408;-122.974;2022-11-15T07:27:39;5.97;;;2.92;;
46881;SDS011;44112;38.408;-122.974;2022-11-15T07:30:06;5.80;;;3.03;;
46881;SDS011;44112;38.408;-122.974;2022-11-15T07:32:33;6.53;;;3.45;;
46881;SDS011;44112;38.408;-122.974;2022-11-15T07:35:00;7.57;;;3.05;;
46881;SDS011;44112;38.408;-122.974;2022-11-15T07:37:26;5.57;;;3.13;;
46881;SDS011;44112;38.408;-122.974;2022-11-15T07:39:53;6.68;;;3.10;;
46881;SDS011;44112;38.408;-122.974;2022-11-15T07:42:20;6.53;;;2.85;;
46881;SDS011;44112;38.408;-122.974;2022-11-15T07:45:06;5.97;;;2.97;;
46881;SDS011;44112;38.408;-122.974;2022-11-15T07:47:33;6.53;;;3.20;;
46881;SDS011;44112;38.408;-122.974;2022-11-15T07:49:59;6.63;;;3.10;;
46881;SDS011;44112;38.408;-122.974;2022-11-15T07:52:25;5.70;;;3.00;;
46881;SDS011;44112;38.408;-122.974;2022-11-15T07:54:52;7.82;;;3.08;;
46881;SDS011;44112;38.408;-122.974;2022-11-15T07:57:18;6.03;;;3.20;;
46881;SDS011;44112;38.408;-122.974;2022-11-15T07:59:45;4.72;;;2.80;;
46881;SDS011;44112;38.408;-122.974;2022-11-15T08:02:11;7.35;;;2.75;;
46881;SDS011;44112;38.408;-122.974;2022-11-15T08:04:37;4.97;;;2.70;;
46881;SDS011;44112;38.408;-122.974;2022-11-15T08:07:04;7.00;;;3.05;;
46881;SDS011;44112;38.408;-122.974;2022-11-15T08:09:31;6.47;;;2.95;;
46881;SDS011;44112;38.408;-122.974;2022-11-15T08:11:59;5.35;;;2.70;;
46881;SDS011;44112;38.408;-122.974;2022-11-15T08:14:25;5.47;;;2.80;;
46881;SDS011;44112;38.408;-122.974;2022-11-15T08:16:51;5.63;;;2.80;;
46881;SDS011;44112;38.408;-122.974;2022-11-15T08:19:19;5.40;;;3.03;;
46881;SDS011;44112;38.408;-122.974;2022-11-15T08:21:46;5.82;;;2.80;;
46881;SDS011;44112;38.408;-122.974;2022-11-15T08:24:12;5.20;;;2.80;;
46881;SDS011;44112;38.408;-122.974;2022-11-15T08:26:39;4.90;;;2.60;;
46881;SDS011;44112;38.408;-122.974;2022-11-15T08:29:05;4.90;;;2.70;;
46881;SDS011;44112;38.408;-122.974;2022-11-15T08:31:34;5.63;;;2.90;;
46881;SDS011;44112;38.408;-122.974;2022-11-15T08:34:02;5.22;;;2.80;;
46881;SDS011;44112;38.408;-122.974;2022-11-15T08:36:29;5.05;;;2.90;;
46881;SDS011;44112;38.408;-122.974;2022-11-15T08:38:55;5.15;;;2.65;;
46881;SDS011;44112;38.408;-122.974;2022-11-15T08:41:25;6.13;;;2.97;;
46881;SDS011;44112;38.408;-122.974;2022-11-15T08:43:57;6.25;;;2.75;;
46881;SDS011;44112;38.408;-122.974;2022-11-15T08:46:24;5.35;;;2.95;;
46881;SDS011;44112;38.408;-122.974;2022-11-15T08:48:51;7.88;;;3.35;;
46881;SDS011;44112;38.408;-122.974;2022-11-15T08:51:18;6.40;;;2.90;;
46881;SDS011;44112;38.408;-122.974;2022-11-15T08:53:44;6.72;;;2.80;;
46881;SDS011;44112;38.408;-122.974;2022-11-15T08:56:12;6.85;;;3.03;;
46881;SDS011;44112;38.408;-122.974;2022-11-15T08:58:40;5.63;;;3.00;;
46881;SDS011;44112;38.408;-122.974;2022-11-15T09:01:14;5.25;;;2.80;;
46881;SDS011;44112;38.408;-122.974;2022-11-15T09:03:43;5.90;;;3.13;;
46881;SDS011;44112;38.408;-122.974;2022-11-15T09:06:09;6.60;;;2.90;;
46881;SDS011;44112;38.408;-122.974;2022-11-15T09:08:36;5.93;;;2.95;;
46881;SDS011;44112;38.408;-122.974;2022-11-15T09:11:06;5.63;;;3.08;;
46881;SDS011;44112;38.408;-122.974;2022-11-15T09:13:34;5.75;;;3.05;;
46881;SDS011;44112;38.408;-122.974;2022-11-15T09:16:02;4.88;;;2.85;;
46881;SDS011;44112;38.408;-122.974;2022-11-15T09:18:29;5.43;;;3.03;;
46881;SDS011;44112;38.408;-122.974;2022-11-15T09:20:57;5.55;;;3.00;;
46881;SDS011;44112;38.408;-122.974;2022-11-15T09:23:24;4.78;;;2.72;;
46881;SDS011;44112;38.408;-122.974;2022-11-15T09:25:51;6.72;;;2.92;;
46881;SDS011;44112;38.408;-122.974;2022-11-15T09:28:23;5.25;;;2.80;;
46881;SDS011;44112;38.408;-122.974;2022-11-15T09:30:49;5.95;;;3.03;;
46881;SDS011;44112;38.408;-122.974;2022-11-15T09:33:16;5.20;;;2.97;;
46881;SDS011;44112;38.408;-122.974;2022-11-15T09:35:43;5.90;;;3.00;;
46881;SDS011;44112;38.408;-122.974;2022-11-15T09:38:10;6.13;;;2.88;;
46881;SDS011;44112;38.408;-122.974;2022-11-15T09:40:37;5.20;;;2.80;;
46881;SDS011;44112;38.408;-122.974;2022-11-15T09:43:07;5.47;;;2.90;;
46881;SDS011;44112;38.408;-122.974;2022-11-15T09:50:42;4.60;;;2.70;;
46881;SDS011;44112;38.408;-122.974;2022-11-15T09:56:05;6.13;;;2.88;;
46881;SDS011;44112;38.408;-122.974;2022-11-15T10:01:16;6.32;;;3.00;;
46881;SDS011;44112;38.408;-122.974;2022-11-15T10:03:50;9.80;;;3.30;;
46881;SDS011;44112;38.408;-122.974;2022-11-15T10:06:25;15.77;;;4.07;;
46881;SDS011;44112;38.408;-122.974;2022-11-15T10:11:40;8.40;;;3.33;;
46881;SDS011;44112;38.408;-122.974;2022-11-15T10:14:11;6.75;;;3.00;;
46881;SDS011;44112;38.408;-122.974;2022-11-15T10:17:06;7.35;;;3.33;;
46881;SDS011;44112;38.408;-122.974;2022-11-15T10:24:58;7.20;;;3.58;;
46881;SDS011;44112;38.408;-122.974;2022-11-15T10:27:26;9.13;;;3.03;;
46881;SDS011;44112;38.408;-122.974;2022-11-15T10:29:54;7.28;;;3.10;;
46881;SDS011;44112;38.408;-122.974;2022-11-15T10:32:21;6.93;;;3.30;;
46881;SDS011;44112;38.408;-122.974;2022-11-15T10:34:48;7.13;;;3.22;;
46881;SDS011;44112;38.408;-122.974;2022-11-15T10:37:27;6.35;;;3.03;;
46881;SDS011;44112;38.408;-122.974;2022-11-15T10:45:36;6.53;;;2.90;;
46881;SDS011;44112;38.408;-122.974;2022-11-15T10:50:41;6.72;;;3.20;;
46881;SDS011;44112;38.408;-122.974;2022-11-15T10:55:57;5.95;;;3.05;;
46881;SDS011;44112;38.408;-122.974;2022-11-15T10:59:03;6.22;;;3.20;;
46881;SDS011;44112;38.408;-122.974;2022-11-15T11:01:24;6.55;;;3.00;;
46881;SDS011;44112;38.408;-122.974;2022-11-15T11:03:59;5.85;;;3.03;;
46881;SDS011;44112;38.408;-122.974;2022-11-15T11:06:29;6.05;;;3.22;;
46881;SDS011;44112;38.408;-122.974;2022-11-15T11:14:24;7.20;;;3.20;;
46881;SDS011;44112;38.408;-122.974;2022-11-15T11:38:02;5.13;;;2.65;;
46881;SDS011;44112;38.408;-122.974;2022-11-15T11:40:36;5.65;;;2.83;;
46881;SDS011;44112;38.408;-122.974;2022-11-15T11:46:10;4.80;;;2.72;;
46881;SDS011;44112;38.408;-122.974;2022-11-15T11:49:04;6.03;;;2.90;;
46881;SDS011;44112;38.408;-122.974;2022-11-15T11:54:37;4.88;;;2.67;;
46881;SDS011;44112;38.408;-122.974;2022-11-15T11:57:29;5.30;;;2.70;;
46881;SDS011;44112;38.408;-122.974;2022-11-15T12:05:37;5.68;;;2.60;;
46881;SDS011;44112;38.408;-122.974;2022-11-15T12:11:10;5.80;;;2.50;;
46881;SDS011;44112;38.408;-122.974;2022-11-15T12:13:42;5.10;;;2.65;;
46881;SDS011;44112;38.408;-122.974;2022-11-15T12:16:16;5.45;;;2.75;;
46881;SDS011;44112;38.408;-122.974;2022-11-15T12:18:48;5.65;;;2.80;;
46881;SDS011;44112;38.408;-122.974;2022-11-15T12:21:20;4.82;;;2.55;;
46881;SDS011;44112;38.408;-122.974;2022-11-15T12:26:42;5.43;;;2.70;;
46881;SDS011;44112;38.408;-122.974;2022-11-15T12:32:14;4.53;;;2.55;;
46881;SDS011;44112;38.408;-122.974;2022-11-15T12:34:49;4.85;;;2.60;;
46881;SDS011;44112;38.408;-122.974;2022-11-15T13:11:58;4.47;;;2.40;;
46881;SDS011;44112;38.408;-122.974;2022-11-15T13:19:57;4.72;;;2.40;;
46881;SDS011;44112;38.408;-122.974;2022-11-15T13:22:42;4.80;;;2.42;;
46881;SDS011;44112;38.408;-122.974;2022-11-15T13:30:48;5.45;;;2.70;;
46881;SDS011;44112;38.408;-122.974;2022-11-15T13:36:03;4.95;;;2.63;;
46881;SDS011;44112;38.408;-122.974;2022-11-15T13:38:41;5.07;;;2.80;;
46881;SDS011;44112;38.408;-122.974;2022-11-15T13:43:47;4.43;;;2.47;;
46881;SDS011;44112;38.408;-122.974;2022-11-15T13:46:20;4.90;;;2.50;;
46881;SDS011;44112;38.408;-122.974;2022-11-15T13:49:12;4.75;;;2.53;;
46881;SDS011;44112;38.408;-122.974;2022-11-15T13:54:37;4.55;;;2.45;;
46881;SDS011;44112;38.408;-122.974;2022-11-15T13:57:24;4.72;;;2.53;;
46881;SDS011;44112;38.408;-122.974;2022-11-15T14:00:01;4.60;;;2.40;;
46881;SDS011;44112;38.408;-122.974;2022-11-15T14:02:32;5.53;;;2.40;;
46881;SDS011;44112;38.408;-122.974;2022-11-15T14:07:39;4.38;;;2.35;;
46881;SDS011;44112;38.408;-122.974;2022-11-15T14:13:27;4.65;;;2.42;;
46881;SDS011;44112;38.408;-122.974;2022-11-15T14:15:54;4.95;;;2.70;;
46881;SDS011;44112;38.408;-122.974;2022-11-15T14:18:40;4.50;;;2.40;;
46881;SDS011;44112;38.408;-122.974;2022-11-15T14:21:10;4.70;;;2.45;;
46881;SDS011;44112;38.408;-122.974;2022-11-15T14:23:37;4.45;;;2.10;;
46881;SDS011;44112;38.408;-122.974;2022-11-15T14:26:03;4.80;;;2.50;;
46881;SDS011;44112;38.408;-122.974;2022-11-15T14:28:34;4.85;;;2.47;;
46881;SDS011;44112;38.408;-122.974;2022-11-15T14:31:04;4.28;;;2.35;;
46881;SDS011;44112;38.408;-122.974;2022-11-15T14:38:38;4.75;;;2.47;;
46881;SDS011;44112;38.408;-122.974;2022-11-15T14:41:05;4.85;;;2.58;;
46881;SDS011;44112;38.408;-122.974;2022-11-15T14:43:35;4.50;;;2.45;;
46881;SDS011;44112;38.408;-122.974;2022-11-15T14:46:02;4.90;;;2.53;;
46881;SDS011;44112;38.408;-122.974;2022-11-15T14:48:29;4.63;;;2.60;;
46881;SDS011;44112;38.408;-122.974;2022-11-15T14:50:56;4.80;;;2.53;;
46881;SDS011;44112;38.408;-122.974;2022-11-15T14:53:22;3.85;;;2.17;;
46881;SDS011;44112;38.408;-122.974;2022-11-15T14:55:50;6.30;;;2.60;;
46881;SDS011;44112;38.408;-122.974;2022-11-15T14:58:16;4.93;;;2.47;;
46881;SDS011;44112;38.408;-122.974;2022-11-15T15:00:44;4.55;;;2.50;;
46881;SDS011;44112;38.408;-122.974;2022-11-15T15:03:10;4.90;;;2.55;;
46881;SDS011;44112;38.408;-122.974;2022-11-15T15:05:37;5.10;;;2.60;;
46881;SDS011;44112;38.408;-122.974;2022-11-15T15:08:05;5.05;;;2.60;;
46881;SDS011;44112;38.408;-122.974;2022-11-15T15:10:33;4.90;;;2.40;;
46881;SDS011;44112;38.408;-122.974;2022-11-15T15:13:03;4.30;;;2.30;;
46881;SDS011;44112;38.408;-122.974;2022-11-15T15:15:34;4.88;;;2.42;;
46881;SDS011;44112;38.408;-122.974;2022-11-15T15:18:02;4.45;;;2.42;;
46881;SDS011;44112;38.408;-122.974;2022-11-15T15:20:30;4.40;;;2.50;;
46881;SDS011;44112;38.408;-122.974;2022-11-15T15:22:57;4.72;;;2.45;;
46881;SDS011;44112;38.408;-122.974;2022-11-15T15:25:29;4.35;;;2.40;;
46881;SDS011;44112;38.408;-122.974;2022-11-15T15:27:58;4.25;;;2.50;;
46881;SDS011;44112;38.408;-122.974;2022-11-15T15:30:26;5.53;;;2.40;;
46881;SDS011;44112;38.408;-122.974;2022-11-15T15:32:54;4.25;;;2.40;;
46881;SDS011;44112;38.408;-122.974;2022-11-15T15:35:21;4.50;;;2.35;;
46881;SDS011;44112;38.408;-122.974;2022-11-15T15:37:55;4.35;;;2.38;;
46881;SDS011;44112;38.408;-122.974;2022-11-15T15:40:22;4.70;;;2.50;;
46881;SDS011;44112;38.408;-122.974;2022-11-15T15:42:50;5.13;;;2.55;;
46881;SDS011;44112;38.408;-122.974;2022-11-15T15:45:17;4.22;;;2.40;;
46881;SDS011;44112;38.408;-122.974;2022-11-15T15:47:44;4.32;;;2.33;;
46881;SDS011;44112;38.408;-122.974;2022-11-15T15:50:17;4.60;;;2.30;;
46881;SDS011;44112;38.408;-122.974;2022-11-15T15:52:48;4.28;;;2.47;;
46881;SDS011;44112;38.408;-122.974;2022-11-15T15:55:16;4.93;;;2.63;;
46881;SDS011;44112;38.408;-122.974;2022-11-15T15:57:43;4.05;;;2.22;;
46881;SDS011;44112;38.408;-122.974;2022-11-15T16:00:09;4.15;;;2.33;;
46881;SDS011;44112;38.408;-122.974;2022-11-15T16:02:36;4.07;;;2.35;;
46881;SDS011;44112;38.408;-122.974;2022-11-15T16:05:03;4.47;;;2.28;;
46881;SDS011;44112;38.408;-122.974;2022-11-15T16:07:31;4.35;;;2.38;;
46881;SDS011;44112;38.408;-122.974;2022-11-15T16:09:58;4.10;;;2.28;;
46881;SDS011;44112;38.408;-122.974;2022-11-15T16:12:27;4.38;;;2.40;;
46881;SDS011;44112;38.408;-122.974;2022-11-15T16:14:57;5.47;;;2.80;;
46881;SDS011;44112;38.408;-122.974;2022-11-15T16:17:28;8.43;;;2.67;;
46881;SDS011;44112;38.408;-122.974;2022-11-15T16:19:58;6.15;;;2.58;;
46881;SDS011;44112;38.408;-122.974;2022-11-15T16:22:25;6.57;;;2.47;;
46881;SDS011;44112;38.408;-122.974;2022-11-15T16:24:54;5.47;;;2.53;;
46881;SDS011;44112;38.408;-122.974;2022-11-15T16:27:22;6.13;;;2.65;;
46881;SDS011;44112;38.408;-122.974;2022-11-15T16:29:49;6.40;;;2.50;;
46881;SDS011;44112;38.408;-122.974;2022-11-15T16:32:16;6.05;;;2.80;;
46881;SDS011;44112;38.408;-122.974;2022-11-15T16:34:42;4.55;;;2.40;;
46881;SDS011;44112;38.408;-122.974;2022-11-15T16:37:21;6.50;;;2.60;;
46881;SDS011;44112;38.408;-122.974;2022-11-15T16:39:49;6.43;;;2.63;;
46881;SDS011;44112;38.408;-122.974;2022-11-15T16:42:17;5.63;;;2.40;;
46881;SDS011;44112;38.408;-122.974;2022-11-15T16:44:43;6.03;;;2.53;;
46881;SDS011;44112;38.408;-122.974;2022-11-15T16:47:14;4.68;;;2.40;;
46881;SDS011;44112;38.408;-122.974;2022-11-15T16:49:47;7.03;;;2.50;;
46881;SDS011;44112;38.408;-122.974;2022-11-15T16:52:14;4.78;;;2.58;;
46881;SDS011;44112;38.408;-122.974;2022-11-15T16:54:41;5.75;;;2.58;;
46881;SDS011;44112;38.408;-122.974;2022-11-15T16:57:08;9.88;;;2.67;;
46881;SDS011;44112;38.408;-122.974;2022-11-15T16:59:37;7.00;;;2.72;;
46881;SDS011;44112;38.408;-122.974;2022-11-15T17:02:08;8.30;;;2.55;;
46881;SDS011;44112;38.408;-122.974;2022-11-15T17:04:37;6.07;;;2.65;;
46881;SDS011;44112;38.408;-122.974;2022-11-15T17:07:04;5.07;;;2.50;;
46881;SDS011;44112;38.408;-122.974;2022-11-15T17:09:31;8.13;;;2.50;;
46881;SDS011;44112;38.408;-122.974;2022-11-15T17:11:58;4.30;;;2.28;;
46881;SDS011;44112;38.408;-122.974;2022-11-15T17:14:25;5.07;;;2.50;;